Frederick, IL (62639)

3:02 PM CDT on August 24, 2016 (GMT -0500)
APRSWXNET | | Change Station

Elev 649 ft 40.14 °N, 90.42 °W | Updated 28 minutes ago

Scattered Clouds
Scattered Clouds
86 °F
Feels Like 97 °F
N
2
Wind Variable Wind from WSW
Gusts 5.0 mph

Today
High -- | Low -- °F
--% Chance of Precip.
Yesterday
High -- | Low -- °F
Precip. -- in
Pressure 30.00 in
Visibility 10.0 miles
Clouds Scattered Clouds 2600 ft
Scattered Clouds 3100 ft
Scattered Clouds 3900 ft
Heat Index 97 °F
Dew Point 77 °F
Humidity 74%
Rainfall in
Snow Depth Not available.
6:22 AM 7:45 PM
Waning Gibbous, 54% visible
METAR KIJX 241955Z AUTO 22011KT 10SM SCT026 SCT031 SCT039 30/25 A3000 RMK AO2 T02970246
Pressure 30.00 in
Visibility 10.0 miles
Clouds Scattered Clouds 2600 ft
Scattered Clouds 3100 ft
Scattered Clouds 3900 ft
Heat Index 97 °F
Dew Point 77 °F
Humidity 74%
Rainfall in
Snow Depth Not available.
6:22 AM 7:45 PM
Waning Gibbous, 54% visible
METAR KIJX 241955Z AUTO 22011KT 10SM SCT026 SCT031 SCT039 30/25 A3000 RMK AO2 T02970246

10-Day Weather Forecast

Almanac

Astronomy

Aug. 24, 2016 Rise Set
Actual Time
Civil Twilight
Nautical Twilight
Astronomical Twilight
Moon
Length of Visible Light
Length of Day
Tomorrow will be .
, % of the Moon is Illuminated

Today's Extremes

State Highs State Lows

Community

WunderPhotos

Upload Photos

1,934,696 photos uploaded!

WunderBlog® & News

Nearby

Air Quality

  Air Quality AQ Index Pollutant
Not available.

Snow Depth

Station Depth Elevation

Earthquake Activity

City Distance Mag. Time & Date
Minimum magnitude displayed is 2.5.

Coastal Water Temperatures

Place Temperature

Stations

Nearby Weather Stations

Station Location Temp. Windchill Dew Point Humidity Wind Precip. Elev Updated Type
                   

Watches & Warnings

There are currently no watches in effect.